sensor_id;sensor_type;location;lat;lon;timestamp;P1;durP1;ratioP1;P2;durP2;ratioP2
38972;SDS011;25333;50.762;4.470;2023-05-20T00:01:51;5.47;;;3.47;;
38972;SDS011;25333;50.762;4.470;2023-05-20T00:04:20;7.97;;;3.47;;
38972;SDS011;25333;50.762;4.470;2023-05-20T00:06:46;7.43;;;4.30;;
38972;SDS011;25333;50.762;4.470;2023-05-20T00:09:12;6.38;;;3.50;;
38972;SDS011;25333;50.762;4.470;2023-05-20T00:11:44;5.70;;;3.58;;
38972;SDS011;25333;50.762;4.470;2023-05-20T00:14:15;5.95;;;3.72;;
38972;SDS011;25333;50.762;4.470;2023-05-20T00:16:48;7.18;;;3.80;;
38972;SDS011;25333;50.762;4.470;2023-05-20T00:19:15;4.60;;;3.03;;
38972;SDS011;25333;50.762;4.470;2023-05-20T00:21:40;6.93;;;3.50;;
38972;SDS011;25333;50.762;4.470;2023-05-20T00:24:11;6.85;;;3.03;;
38972;SDS011;25333;50.762;4.470;2023-05-20T00:26:46;4.97;;;3.08;;
38972;SDS011;25333;50.762;4.470;2023-05-20T00:29:30;6.40;;;3.35;;
38972;SDS011;25333;50.762;4.470;2023-05-20T00:32:00;5.23;;;2.70;;
38972;SDS011;25333;50.762;4.470;2023-05-20T00:34:32;6.40;;;2.85;;
38972;SDS011;25333;50.762;4.470;2023-05-20T00:37:03;3.95;;;2.53;;
38972;SDS011;25333;50.762;4.470;2023-05-20T00:39:34;6.03;;;3.58;;
38972;SDS011;25333;50.762;4.470;2023-05-20T00:42:03;5.47;;;3.08;;
38972;SDS011;25333;50.762;4.470;2023-05-20T00:44:40;7.32;;;4.05;;
38972;SDS011;25333;50.762;4.470;2023-05-20T00:47:07;4.80;;;2.90;;
38972;SDS011;25333;50.762;4.470;2023-05-20T00:49:39;6.28;;;3.25;;
38972;SDS011;25333;50.762;4.470;2023-05-20T00:52:09;5.13;;;3.27;;
38972;SDS011;25333;50.762;4.470;2023-05-20T00:54:41;4.53;;;2.85;;
38972;SDS011;25333;50.762;4.470;2023-05-20T00:57:08;4.07;;;2.83;;
38972;SDS011;25333;50.762;4.470;2023-05-20T00:59:36;8.68;;;3.22;;
38972;SDS011;25333;50.762;4.470;2023-05-20T01:02:03;3.70;;;2.80;;
38972;SDS011;25333;50.762;4.470;2023-05-20T01:04:30;5.40;;;3.13;;
38972;SDS011;25333;50.762;4.470;2023-05-20T01:06:58;3.67;;;3.00;;
38972;SDS011;25333;50.762;4.470;2023-05-20T01:09:28;4.20;;;2.47;;
38972;SDS011;25333;50.762;4.470;2023-05-20T01:12:02;5.38;;;3.40;;
38972;SDS011;25333;50.762;4.470;2023-05-20T01:14:36;6.97;;;3.55;;
38972;SDS011;25333;50.762;4.470;2023-05-20T01:17:14;4.07;;;3.00;;
38972;SDS011;25333;50.762;4.470;2023-05-20T01:20:48;5.88;;;3.00;;
38972;SDS011;25333;50.762;4.470;2023-05-20T01:23:32;5.95;;;3.40;;
38972;SDS011;25333;50.762;4.470;2023-05-20T01:26:12;4.72;;;2.90;;
38972;SDS011;25333;50.762;4.470;2023-05-20T01:28:56;4.95;;;2.70;;
38972;SDS011;25333;50.762;4.470;2023-05-20T01:31:54;5.10;;;2.70;;
38972;SDS011;25333;50.762;4.470;2023-05-20T01:35:09;6.90;;;3.30;;
38972;SDS011;25333;50.762;4.470;2023-05-20T01:37:44;4.80;;;3.22;;
38972;SDS011;25333;50.762;4.470;2023-05-20T01:40:35;3.07;;;2.30;;
38972;SDS011;25333;50.762;4.470;2023-05-20T01:43:12;3.90;;;2.80;;
38972;SDS011;25333;50.762;4.470;2023-05-20T01:45:53;5.78;;;3.08;;
38972;SDS011;25333;50.762;4.470;2023-05-20T01:48:28;4.80;;;2.45;;
38972;SDS011;25333;50.762;4.470;2023-05-20T01:51:01;5.45;;;3.42;;
38972;SDS011;25333;50.762;4.470;2023-05-20T01:53:35;5.05;;;3.13;;
38972;SDS011;25333;50.762;4.470;2023-05-20T01:56:16;3.35;;;2.63;;
38972;SDS011;25333;50.762;4.470;2023-05-20T01:58:43;3.35;;;2.47;;
38972;SDS011;25333;50.762;4.470;2023-05-20T02:01:17;4.43;;;2.55;;
38972;SDS011;25333;50.762;4.470;2023-05-20T02:04:06;5.20;;;2.38;;
38972;SDS011;25333;50.762;4.470;2023-05-20T02:06:43;5.25;;;2.45;;
38972;SDS011;25333;50.762;4.470;2023-05-20T02:09:24;4.47;;;2.67;;
38972;SDS011;25333;50.762;4.470;2023-05-20T02:11:56;4.00;;;2.63;;
38972;SDS011;25333;50.762;4.470;2023-05-20T02:14:23;5.80;;;2.78;;
38972;SDS011;25333;50.762;4.470;2023-05-20T02:16:53;5.20;;;2.75;;
38972;SDS011;25333;50.762;4.470;2023-05-20T02:19:18;5.22;;;2.80;;
38972;SDS011;25333;50.762;4.470;2023-05-20T02:22:05;5.90;;;3.03;;
38972;SDS011;25333;50.762;4.470;2023-05-20T02:24:34;4.20;;;2.90;;
38972;SDS011;25333;50.762;4.470;2023-05-20T02:27:01;2.92;;;2.03;;
38972;SDS011;25333;50.762;4.470;2023-05-20T02:29:28;4.35;;;2.08;;
38972;SDS011;25333;50.762;4.470;2023-05-20T02:31:54;4.87;;;2.63;;
38972;SDS011;25333;50.762;4.470;2023-05-20T02:34:23;5.18;;;2.95;;
38972;SDS011;25333;50.762;4.470;2023-05-20T02:36:57;4.53;;;2.35;;
38972;SDS011;25333;50.762;4.470;2023-05-20T02:39:26;3.07;;;2.10;;
38972;SDS011;25333;50.762;4.470;2023-05-20T02:41:53;5.37;;;2.53;;
38972;SDS011;25333;50.762;4.470;2023-05-20T02:44:21;4.27;;;2.57;;
38972;SDS011;25333;50.762;4.470;2023-05-20T02:46:49;4.10;;;2.35;;
38972;SDS011;25333;50.762;4.470;2023-05-20T02:49:16;7.20;;;2.60;;
38972;SDS011;25333;50.762;4.470;2023-05-20T02:51:45;3.67;;;1.75;;
38972;SDS011;25333;50.762;4.470;2023-05-20T02:54:12;7.25;;;2.67;;
38972;SDS011;25333;50.762;4.470;2023-05-20T02:56:39;4.20;;;2.25;;
38972;SDS011;25333;50.762;4.470;2023-05-20T02:59:06;4.93;;;3.20;;
38972;SDS011;25333;50.762;4.470;2023-05-20T03:01:33;3.35;;;2.53;;
38972;SDS011;25333;50.762;4.470;2023-05-20T03:04:01;4.10;;;2.30;;
38972;SDS011;25333;50.762;4.470;2023-05-20T03:06:27;5.55;;;2.05;;
38972;SDS011;25333;50.762;4.470;2023-05-20T03:08:58;3.50;;;2.28;;
38972;SDS011;25333;50.762;4.470;2023-05-20T03:12:10;3.42;;;2.00;;
38972;SDS011;25333;50.762;4.470;2023-05-20T03:15:05;4.10;;;2.15;;
38972;SDS011;25333;50.762;4.470;2023-05-20T03:17:38;5.93;;;2.35;;
38972;SDS011;25333;50.762;4.470;2023-05-20T03:20:14;4.68;;;2.53;;
38972;SDS011;25333;50.762;4.470;2023-05-20T03:22:51;5.35;;;2.30;;
38972;SDS011;25333;50.762;4.470;2023-05-20T03:25:21;5.05;;;2.60;;
38972;SDS011;25333;50.762;4.470;2023-05-20T03:27:51;4.55;;;2.47;;
38972;SDS011;25333;50.762;4.470;2023-05-20T03:33:09;3.08;;;2.35;;
38972;SDS011;25333;50.762;4.470;2023-05-20T03:35:42;4.18;;;2.25;;
38972;SDS011;25333;50.762;4.470;2023-05-20T03:38:08;4.35;;;2.85;;
38972;SDS011;25333;50.762;4.470;2023-05-20T03:40:46;3.25;;;2.90;;
38972;SDS011;25333;50.762;4.470;2023-05-20T03:46:19;4.90;;;3.10;;
38972;SDS011;25333;50.762;4.470;2023-05-20T03:51:26;3.67;;;2.67;;
38972;SDS011;25333;50.762;4.470;2023-05-20T03:53:52;6.70;;;2.55;;
38972;SDS011;25333;50.762;4.470;2023-05-20T03:56:18;5.88;;;2.95;;
38972;SDS011;25333;50.762;4.470;2023-05-20T03:58:43;4.73;;;2.60;;
38972;SDS011;25333;50.762;4.470;2023-05-20T04:01:09;3.83;;;2.20;;
38972;SDS011;25333;50.762;4.470;2023-05-20T04:03:38;5.05;;;2.60;;
38972;SDS011;25333;50.762;4.470;2023-05-20T04:06:05;4.57;;;2.42;;
38972;SDS011;25333;50.762;4.470;2023-05-20T04:08:31;5.20;;;3.00;;
38972;SDS011;25333;50.762;4.470;2023-05-20T04:10:57;5.72;;;2.83;;
38972;SDS011;25333;50.762;4.470;2023-05-20T04:13:24;4.53;;;2.60;;
38972;SDS011;25333;50.762;4.470;2023-05-20T04:15:50;6.55;;;2.95;;
38972;SDS011;25333;50.762;4.470;2023-05-20T04:18:17;5.13;;;2.75;;
38972;SDS011;25333;50.762;4.470;2023-05-20T04:20:43;4.82;;;2.65;;
38972;SDS011;25333;50.762;4.470;2023-05-20T04:23:10;7.57;;;3.17;;
38972;SDS011;25333;50.762;4.470;2023-05-20T04:25:36;8.57;;;3.47;;
38972;SDS011;25333;50.762;4.470;2023-05-20T04:28:01;6.90;;;3.10;;
38972;SDS011;25333;50.762;4.470;2023-05-20T04:30:27;3.65;;;2.20;;
38972;SDS011;25333;50.762;4.470;2023-05-20T04:32:52;4.07;;;2.60;;
38972;SDS011;25333;50.762;4.470;2023-05-20T04:35:18;3.70;;;2.60;;
38972;SDS011;25333;50.762;4.470;2023-05-20T04:37:44;6.40;;;3.20;;
38972;SDS011;25333;50.762;4.470;2023-05-20T04:40:12;5.97;;;3.05;;
38972;SDS011;25333;50.762;4.470;2023-05-20T04:42:38;5.22;;;3.17;;
38972;SDS011;25333;50.762;4.470;2023-05-20T04:45:04;5.00;;;2.93;;
38972;SDS011;25333;50.762;4.470;2023-05-20T04:47:32;5.05;;;3.17;;
38972;SDS011;25333;50.762;4.470;2023-05-20T04:50:02;4.63;;;2.97;;
38972;SDS011;25333;50.762;4.470;2023-05-20T04:52:32;4.88;;;2.88;;
38972;SDS011;25333;50.762;4.470;2023-05-20T04:54:58;6.67;;;3.30;;
38972;SDS011;25333;50.762;4.470;2023-05-20T04:57:25;6.60;;;3.25;;
38972;SDS011;25333;50.762;4.470;2023-05-20T04:59:51;4.78;;;2.97;;
38972;SDS011;25333;50.762;4.470;2023-05-20T05:02:17;5.37;;;3.33;;
38972;SDS011;25333;50.762;4.470;2023-05-20T05:04:42;4.35;;;3.17;;
38972;SDS011;25333;50.762;4.470;2023-05-20T05:07:08;3.27;;;2.17;;
38972;SDS011;25333;50.762;4.470;2023-05-20T05:09:33;3.90;;;2.80;;
38972;SDS011;25333;50.762;4.470;2023-05-20T05:11:59;6.72;;;3.35;;
38972;SDS011;25333;50.762;4.470;2023-05-20T05:14:26;8.32;;;3.65;;
38972;SDS011;25333;50.762;4.470;2023-05-20T05:16:52;3.70;;;2.77;;
38972;SDS011;25333;50.762;4.470;2023-05-20T05:19:17;5.63;;;3.47;;
38972;SDS011;25333;50.762;4.470;2023-05-20T05:21:43;4.18;;;2.70;;
38972;SDS011;25333;50.762;4.470;2023-05-20T05:24:08;4.37;;;3.03;;
38972;SDS011;25333;50.762;4.470;2023-05-20T05:26:34;5.43;;;3.05;;
38972;SDS011;25333;50.762;4.470;2023-05-20T05:29:00;5.67;;;3.37;;
38972;SDS011;25333;50.762;4.470;2023-05-20T05:31:26;4.15;;;2.80;;
38972;SDS011;25333;50.762;4.470;2023-05-20T05:33:51;7.10;;;3.30;;
38972;SDS011;25333;50.762;4.470;2023-05-20T05:36:17;5.80;;;3.20;;
38972;SDS011;25333;50.762;4.470;2023-05-20T05:38:42;7.10;;;3.65;;
38972;SDS011;25333;50.762;4.470;2023-05-20T05:41:08;5.23;;;3.03;;
38972;SDS011;25333;50.762;4.470;2023-05-20T05:43:34;5.15;;;3.33;;
38972;SDS011;25333;50.762;4.470;2023-05-20T05:45:59;7.43;;;3.40;;
38972;SDS011;25333;50.762;4.470;2023-05-20T05:48:25;4.00;;;2.70;;
38972;SDS011;25333;50.762;4.470;2023-05-20T05:50:51;5.38;;;3.55;;
38972;SDS011;25333;50.762;4.470;2023-05-20T05:53:17;5.20;;;3.17;;
38972;SDS011;25333;50.762;4.470;2023-05-20T05:55:43;4.70;;;3.13;;
38972;SDS011;25333;50.762;4.470;2023-05-20T05:58:10;10.07;;;3.20;;
38972;SDS011;25333;50.762;4.470;2023-05-20T06:00:37;6.70;;;3.88;;
38972;SDS011;25333;50.762;4.470;2023-05-20T06:03:02;6.13;;;3.03;;
38972;SDS011;25333;50.762;4.470;2023-05-20T06:05:28;6.93;;;3.67;;
38972;SDS011;25333;50.762;4.470;2023-05-20T06:07:54;5.32;;;3.35;;
38972;SDS011;25333;50.762;4.470;2023-05-20T06:10:20;5.93;;;3.27;;
38972;SDS011;25333;50.762;4.470;2023-05-20T06:12:46;5.72;;;3.20;;
38972;SDS011;25333;50.762;4.470;2023-05-20T06:15:11;5.33;;;3.00;;
38972;SDS011;25333;50.762;4.470;2023-05-20T06:17:37;4.18;;;3.40;;
38972;SDS011;25333;50.762;4.470;2023-05-20T06:20:03;5.88;;;3.38;;
38972;SDS011;25333;50.762;4.470;2023-05-20T06:22:29;6.25;;;3.35;;
38972;SDS011;25333;50.762;4.470;2023-05-20T06:24:55;5.83;;;3.07;;
38972;SDS011;25333;50.762;4.470;2023-05-20T06:27:24;5.10;;;3.45;;
38972;SDS011;25333;50.762;4.470;2023-05-20T06:29:51;4.50;;;2.60;;
38972;SDS011;25333;50.762;4.470;2023-05-20T06:32:17;4.97;;;3.05;;
38972;SDS011;25333;50.762;4.470;2023-05-20T06:34:42;5.85;;;2.92;;
38972;SDS011;25333;50.762;4.470;2023-05-20T06:37:09;6.15;;;2.72;;
38972;SDS011;25333;50.762;4.470;2023-05-20T06:39:35;7.95;;;2.90;;
38972;SDS011;25333;50.762;4.470;2023-05-20T06:42:00;4.70;;;2.90;;
38972;SDS011;25333;50.762;4.470;2023-05-20T06:44:27;5.25;;;2.95;;
38972;SDS011;25333;50.762;4.470;2023-05-20T06:46:52;4.43;;;2.90;;
38972;SDS011;25333;50.762;4.470;2023-05-20T06:49:18;5.03;;;3.33;;
38972;SDS011;25333;50.762;4.470;2023-05-20T06:51:44;3.90;;;2.70;;
38972;SDS011;25333;50.762;4.470;2023-05-20T06:54:09;5.53;;;2.53;;
38972;SDS011;25333;50.762;4.470;2023-05-20T06:56:35;4.40;;;2.45;;
38972;SDS011;25333;50.762;4.470;2023-05-20T06:59:01;3.72;;;3.30;;
38972;SDS011;25333;50.762;4.470;2023-05-20T07:01:26;3.10;;;2.00;;
38972;SDS011;25333;50.762;4.470;2023-05-20T07:03:52;5.77;;;2.07;;
38972;SDS011;25333;50.762;4.470;2023-05-20T07:06:17;4.53;;;2.70;;
38972;SDS011;25333;50.762;4.470;2023-05-20T07:08:43;4.38;;;2.45;;
38972;SDS011;25333;50.762;4.470;2023-05-20T07:11:09;3.93;;;2.23;;
38972;SDS011;25333;50.762;4.470;2023-05-20T07:13:34;4.68;;;2.22;;
38972;SDS011;25333;50.762;4.470;2023-05-20T07:16:01;5.05;;;2.80;;
38972;SDS011;25333;50.762;4.470;2023-05-20T07:18:26;4.50;;;2.42;;
38972;SDS011;25333;50.762;4.470;2023-05-20T07:20:52;5.73;;;2.23;;
38972;SDS011;25333;50.762;4.470;2023-05-20T07:23:18;5.63;;;2.30;;
38972;SDS011;25333;50.762;4.470;2023-05-20T07:25:43;3.90;;;2.55;;
38972;SDS011;25333;50.762;4.470;2023-05-20T07:28:10;4.65;;;2.17;;
38972;SDS011;25333;50.762;4.470;2023-05-20T07:30:35;3.80;;;2.40;;
38972;SDS011;25333;50.762;4.470;2023-05-20T07:33:01;4.13;;;1.73;;
38972;SDS011;25333;50.762;4.470;2023-05-20T07:35:27;5.35;;;2.47;;
38972;SDS011;25333;50.762;4.470;2023-05-20T07:37:52;4.32;;;2.35;;
38972;SDS011;25333;50.762;4.470;2023-05-20T07:40:18;3.47;;;2.42;;
38972;SDS011;25333;50.762;4.470;2023-05-20T07:42:44;5.50;;;2.63;;
38972;SDS011;25333;50.762;4.470;2023-05-20T07:45:09;3.05;;;2.45;;
38972;SDS011;25333;50.762;4.470;2023-05-20T07:47:35;5.95;;;2.30;;
38972;SDS011;25333;50.762;4.470;2023-05-20T07:50:01;4.03;;;1.97;;
38972;SDS011;25333;50.762;4.470;2023-05-20T07:52:27;4.63;;;2.08;;
38972;SDS011;25333;50.762;4.470;2023-05-20T07:54:52;3.50;;;2.42;;
38972;SDS011;25333;50.762;4.470;2023-05-20T07:57:18;3.88;;;1.77;;
38972;SDS011;25333;50.762;4.470;2023-05-20T07:59:43;3.37;;;2.10;;
38972;SDS011;25333;50.762;4.470;2023-05-20T08:02:09;4.00;;;2.00;;
38972;SDS011;25333;50.762;4.470;2023-05-20T08:04:35;3.80;;;1.77;;
38972;SDS011;25333;50.762;4.470;2023-05-20T08:07:00;3.90;;;1.55;;
38972;SDS011;25333;50.762;4.470;2023-05-20T08:09:26;3.33;;;1.50;;
38972;SDS011;25333;50.762;4.470;2023-05-20T08:11:52;3.50;;;1.77;;
38972;SDS011;25333;50.762;4.470;2023-05-20T08:14:17;3.53;;;1.73;;
38972;SDS011;25333;50.762;4.470;2023-05-20T08:16:43;3.75;;;1.92;;
38972;SDS011;25333;50.762;4.470;2023-05-20T08:19:09;4.72;;;1.73;;
38972;SDS011;25333;50.762;4.470;2023-05-20T08:21:34;3.92;;;1.85;;
38972;SDS011;25333;50.762;4.470;2023-05-20T08:24:00;3.80;;;1.70;;
38972;SDS011;25333;50.762;4.470;2023-05-20T08:26:27;3.67;;;1.85;;
38972;SDS011;25333;50.762;4.470;2023-05-20T08:28:53;3.57;;;1.47;;
38972;SDS011;25333;50.762;4.470;2023-05-20T08:31:18;3.33;;;1.83;;
38972;SDS011;25333;50.762;4.470;2023-05-20T08:33:44;3.42;;;1.35;;
38972;SDS011;25333;50.762;4.470;2023-05-20T08:36:10;3.67;;;2.10;;
38972;SDS011;25333;50.762;4.470;2023-05-20T08:38:35;5.70;;;1.50;;
38972;SDS011;25333;50.762;4.470;2023-05-20T08:41:01;3.30;;;1.67;;
38972;SDS011;25333;50.762;4.470;2023-05-20T08:43:27;4.00;;;2.07;;
38972;SDS011;25333;50.762;4.470;2023-05-20T08:45:54;3.97;;;1.35;;
38972;SDS011;25333;50.762;4.470;2023-05-20T08:48:21;3.05;;;1.35;;
38972;SDS011;25333;50.762;4.470;2023-05-20T08:50:50;2.17;;;1.33;;
38972;SDS011;25333;50.762;4.470;2023-05-20T08:53:17;3.00;;;1.60;;
38972;SDS011;25333;50.762;4.470;2023-05-20T08:55:56;5.27;;;1.87;;
38972;SDS011;25333;50.762;4.470;2023-05-20T08:58:26;3.77;;;1.30;;
38972;SDS011;25333;50.762;4.470;2023-05-20T09:00:53;2.87;;;1.47;;
38972;SDS011;25333;50.762;4.470;2023-05-20T09:03:19;3.22;;;1.85;;
38972;SDS011;25333;50.762;4.470;2023-05-20T09:05:45;2.28;;;1.75;;
38972;SDS011;25333;50.762;4.470;2023-05-20T09:08:11;2.57;;;0.80;;
38972;SDS011;25333;50.762;4.470;2023-05-20T09:10:38;4.95;;;1.35;;
38972;SDS011;25333;50.762;4.470;2023-05-20T09:13:04;2.97;;;1.40;;
38972;SDS011;25333;50.762;4.470;2023-05-20T09:15:31;3.17;;;1.30;;
38972;SDS011;25333;50.762;4.470;2023-05-20T09:18:02;1.83;;;1.20;;
38972;SDS011;25333;50.762;4.470;2023-05-20T09:20:28;2.50;;;1.42;;
38972;SDS011;25333;50.762;4.470;2023-05-20T09:22:59;3.20;;;1.42;;
38972;SDS011;25333;50.762;4.470;2023-05-20T09:25:25;3.22;;;1.40;;
38972;SDS011;25333;50.762;4.470;2023-05-20T09:27:55;2.72;;;1.17;;
38972;SDS011;25333;50.762;4.470;2023-05-20T09:30:21;2.20;;;1.08;;
38972;SDS011;25333;50.762;4.470;2023-05-20T09:32:57;2.20;;;1.03;;
38972;SDS011;25333;50.762;4.470;2023-05-20T09:35:25;2.85;;;1.15;;
38972;SDS011;25333;50.762;4.470;2023-05-20T09:37:56;3.45;;;1.50;;
38972;SDS011;25333;50.762;4.470;2023-05-20T09:40:26;3.53;;;1.10;;
38972;SDS011;25333;50.762;4.470;2023-05-20T09:42:58;2.10;;;0.90;;
38972;SDS011;25333;50.762;4.470;2023-05-20T09:45:25;1.77;;;0.93;;
38972;SDS011;25333;50.762;4.470;2023-05-20T09:47:51;2.00;;;1.20;;
38972;SDS011;25333;50.762;4.470;2023-05-20T09:50:18;5.53;;;1.25;;
38972;SDS011;25333;50.762;4.470;2023-05-20T09:52:45;2.22;;;1.02;;
38972;SDS011;25333;50.762;4.470;2023-05-20T09:55:13;2.13;;;1.17;;
38972;SDS011;25333;50.762;4.470;2023-05-20T09:57:40;2.27;;;0.97;;
38972;SDS011;25333;50.762;4.470;2023-05-20T10:00:06;3.00;;;1.35;;
38972;SDS011;25333;50.762;4.470;2023-05-20T10:02:34;5.47;;;1.13;;
38972;SDS011;25333;50.762;4.470;2023-05-20T10:05:02;4.50;;;0.93;;
38972;SDS011;25333;50.762;4.470;2023-05-20T10:21:01;3.93;;;1.67;;
38972;SDS011;25333;50.762;4.470;2023-05-20T10:23:27;3.28;;;1.63;;
38972;SDS011;25333;50.762;4.470;2023-05-20T10:25:55;3.92;;;1.50;;
38972;SDS011;25333;50.762;4.470;2023-05-20T10:28:29;3.65;;;1.50;;
38972;SDS011;25333;50.762;4.470;2023-05-20T10:30:57;2.65;;;1.27;;
38972;SDS011;25333;50.762;4.470;2023-05-20T10:33:24;2.88;;;1.13;;
38972;SDS011;25333;50.762;4.470;2023-05-20T10:35:56;4.10;;;1.63;;
38972;SDS011;25333;50.762;4.470;2023-05-20T10:38:26;3.22;;;1.02;;
38972;SDS011;25333;50.762;4.470;2023-05-20T10:40:52;3.30;;;1.27;;
38972;SDS011;25333;50.762;4.470;2023-05-20T10:43:27;2.93;;;1.53;;
38972;SDS011;25333;50.762;4.470;2023-05-20T10:45:53;2.88;;;1.27;;
38972;SDS011;25333;50.762;4.470;2023-05-20T10:50:52;2.20;;;1.10;;
38972;SDS011;25333;50.762;4.470;2023-05-20T10:53:21;3.67;;;1.23;;
38972;SDS011;25333;50.762;4.470;2023-05-20T10:55:50;2.55;;;1.60;;
38972;SDS011;25333;50.762;4.470;2023-05-20T10:58:17;3.00;;;1.58;;
38972;SDS011;25333;50.762;4.470;2023-05-20T11:00:43;4.70;;;1.50;;
38972;SDS011;25333;50.762;4.470;2023-05-20T11:03:10;2.63;;;1.63;;
38972;SDS011;25333;50.762;4.470;2023-05-20T11:05:38;2.70;;;1.45;;
38972;SDS011;25333;50.762;4.470;2023-05-20T11:08:05;1.97;;;1.30;;
38972;SDS011;25333;50.762;4.470;2023-05-20T11:10:32;2.30;;;1.20;;
38972;SDS011;25333;50.762;4.470;2023-05-20T11:12:59;3.63;;;1.60;;
38972;SDS011;25333;50.762;4.470;2023-05-20T11:15:25;2.60;;;1.47;;
38972;SDS011;25333;50.762;4.470;2023-05-20T11:17:54;4.40;;;1.50;;
38972;SDS011;25333;50.762;4.470;2023-05-20T11:20:21;4.28;;;1.55;;
38972;SDS011;25333;50.762;4.470;2023-05-20T11:22:51;3.53;;;1.00;;
38972;SDS011;25333;50.762;4.470;2023-05-20T11:25:18;2.70;;;1.42;;
38972;SDS011;25333;50.762;4.470;2023-05-20T11:27:48;3.25;;;1.30;;
38972;SDS011;25333;50.762;4.470;2023-05-20T11:30:13;2.38;;;1.30;;
38972;SDS011;25333;50.762;4.470;2023-05-20T11:32:41;2.15;;;1.08;;
38972;SDS011;25333;50.762;4.470;2023-05-20T11:35:30;2.95;;;1.02;;
38972;SDS011;25333;50.762;4.470;2023-05-20T11:38:02;2.88;;;1.30;;
38972;SDS011;25333;50.762;4.470;2023-05-20T11:40:33;4.85;;;1.45;;
38972;SDS011;25333;50.762;4.470;2023-05-20T11:43:02;2.25;;;1.52;;
38972;SDS011;25333;50.762;4.470;2023-05-20T11:45:40;3.67;;;1.42;;
38972;SDS011;25333;50.762;4.470;2023-05-20T11:48:07;2.50;;;1.23;;
38972;SDS011;25333;50.762;4.470;2023-05-20T11:50:34;3.80;;;1.50;;
38972;SDS011;25333;50.762;4.470;2023-05-20T11:53:03;2.40;;;1.02;;
38972;SDS011;25333;50.762;4.470;2023-05-20T11:55:30;3.85;;;1.42;;
38972;SDS011;25333;50.762;4.470;2023-05-20T11:57:59;2.08;;;1.10;;
38972;SDS011;25333;50.762;4.470;2023-05-20T12:00:27;3.50;;;1.40;;
38972;SDS011;25333;50.762;4.470;2023-05-20T12:02:53;1.83;;;1.00;;
38972;SDS011;25333;50.762;4.470;2023-05-20T12:05:18;6.10;;;1.47;;
38972;SDS011;25333;50.762;4.470;2023-05-20T12:07:44;1.60;;;0.90;;
38972;SDS011;25333;50.762;4.470;2023-05-20T12:10:10;2.50;;;1.40;;
38972;SDS011;25333;50.762;4.470;2023-05-20T12:12:37;2.65;;;1.38;;
38972;SDS011;25333;50.762;4.470;2023-05-20T12:15:03;3.20;;;0.90;;
38972;SDS011;25333;50.762;4.470;2023-05-20T12:17:30;3.05;;;1.55;;
38972;SDS011;25333;50.762;4.470;2023-05-20T12:20:07;3.17;;;1.20;;
38972;SDS011;25333;50.762;4.470;2023-05-20T12:22:34;4.50;;;1.47;;
38972;SDS011;25333;50.762;4.470;2023-05-20T12:24:59;3.30;;;1.10;;
38972;SDS011;25333;50.762;4.470;2023-05-20T12:27:25;2.85;;;1.25;;
38972;SDS011;25333;50.762;4.470;2023-05-20T12:29:51;2.85;;;1.60;;
38972;SDS011;25333;50.762;4.470;2023-05-20T12:32:16;2.35;;;1.25;;
38972;SDS011;25333;50.762;4.470;2023-05-20T12:34:42;2.83;;;1.10;;
38972;SDS011;25333;50.762;4.470;2023-05-20T12:37:07;3.30;;;1.20;;
38972;SDS011;25333;50.762;4.470;2023-05-20T12:39:33;1.95;;;1.00;;
38972;SDS011;25333;50.762;4.470;2023-05-20T12:41:59;3.13;;;1.33;;
38972;SDS011;25333;50.762;4.470;2023-05-20T12:44:25;1.75;;;0.85;;
38972;SDS011;25333;50.762;4.470;2023-05-20T12:46:51;4.03;;;1.40;;
38972;SDS011;25333;50.762;4.470;2023-05-20T12:49:18;2.35;;;1.10;;
38972;SDS011;25333;50.762;4.470;2023-05-20T12:51:44;2.93;;;1.40;;
38972;SDS011;25333;50.762;4.470;2023-05-20T12:54:09;3.53;;;1.00;;
38972;SDS011;25333;50.762;4.470;2023-05-20T12:56:35;3.10;;;1.57;;
38972;SDS011;25333;50.762;4.470;2023-05-20T12:59:01;2.80;;;1.13;;
38972;SDS011;25333;50.762;4.470;2023-05-20T13:01:26;2.23;;;1.13;;
38972;SDS011;25333;50.762;4.470;2023-05-20T13:03:52;3.07;;;1.10;;
38972;SDS011;25333;50.762;4.470;2023-05-20T13:06:17;2.13;;;1.03;;
38972;SDS011;25333;50.762;4.470;2023-05-20T13:08:43;3.90;;;1.40;;
38972;SDS011;25333;50.762;4.470;2023-05-20T13:11:09;1.38;;;0.85;;
38972;SDS011;25333;50.762;4.470;2023-05-20T13:13:35;2.78;;;1.02;;
38972;SDS011;25333;50.762;4.470;2023-05-20T13:16:01;3.10;;;1.50;;
38972;SDS011;25333;50.762;4.470;2023-05-20T13:18:27;3.00;;;1.00;;
38972;SDS011;25333;50.762;4.470;2023-05-20T13:20:52;2.80;;;0.87;;
38972;SDS011;25333;50.762;4.470;2023-05-20T13:23:18;3.42;;;1.50;;
38972;SDS011;25333;50.762;4.470;2023-05-20T13:25:44;2.65;;;1.00;;
38972;SDS011;25333;50.762;4.470;2023-05-20T13:28:09;1.83;;;0.70;;
38972;SDS011;25333;50.762;4.470;2023-05-20T13:30:36;3.17;;;1.20;;
38972;SDS011;25333;50.762;4.470;2023-05-20T13:33:02;3.58;;;1.10;;
38972;SDS011;25333;50.762;4.470;2023-05-20T13:35:27;2.15;;;0.80;;
38972;SDS011;25333;50.762;4.470;2023-05-20T13:37:53;2.08;;;0.98;;
38972;SDS011;25333;50.762;4.470;2023-05-20T13:40:18;2.60;;;0.98;;
38972;SDS011;25333;50.762;4.470;2023-05-20T13:42:44;2.40;;;1.10;;
38972;SDS011;25333;50.762;4.470;2023-05-20T13:45:10;2.47;;;1.10;;
38972;SDS011;25333;50.762;4.470;2023-05-20T13:47:36;2.95;;;1.30;;
38972;SDS011;25333;50.762;4.470;2023-05-20T13:50:01;2.17;;;0.90;;
38972;SDS011;25333;50.762;4.470;2023-05-20T13:52:27;1.92;;;0.90;;
38972;SDS011;25333;50.762;4.470;2023-05-20T13:54:53;2.78;;;0.82;;
38972;SDS011;25333;50.762;4.470;2023-05-20T13:57:19;2.30;;;1.10;;
38972;SDS011;25333;50.762;4.470;2023-05-20T13:59:44;2.95;;;0.70;;
38972;SDS011;25333;50.762;4.470;2023-05-20T14:02:10;2.22;;;1.02;;
38972;SDS011;25333;50.762;4.470;2023-05-20T14:04:36;2.22;;;1.10;;
38972;SDS011;25333;50.762;4.470;2023-05-20T14:07:04;1.38;;;0.93;;
38972;SDS011;25333;50.762;4.470;2023-05-20T14:09:29;2.67;;;0.90;;
38972;SDS011;25333;50.762;4.470;2023-05-20T14:11:55;2.10;;;1.20;;
38972;SDS011;25333;50.762;4.470;2023-05-20T14:14:21;3.88;;;1.40;;
38972;SDS011;25333;50.762;4.470;2023-05-20T14:16:46;2.20;;;1.20;;
38972;SDS011;25333;50.762;4.470;2023-05-20T14:19:12;1.92;;;1.15;;
38972;SDS011;25333;50.762;4.470;2023-05-20T14:21:38;1.35;;;0.70;;
38972;SDS011;25333;50.762;4.470;2023-05-20T14:24:03;4.13;;;1.35;;
38972;SDS011;25333;50.762;4.470;2023-05-20T14:26:29;2.28;;;1.30;;
38972;SDS011;25333;50.762;4.470;2023-05-20T14:28:55;4.40;;;1.50;;
38972;SDS011;25333;50.762;4.470;2023-05-20T14:31:20;3.80;;;1.20;;
38972;SDS011;25333;50.762;4.470;2023-05-20T14:33:46;2.60;;;0.93;;
38972;SDS011;25333;50.762;4.470;2023-05-20T14:36:12;4.23;;;1.90;;
38972;SDS011;25333;50.762;4.470;2023-05-20T14:38:37;4.77;;;2.40;;
38972;SDS011;25333;50.762;4.470;2023-05-20T14:41:03;2.83;;;1.57;;
38972;SDS011;25333;50.762;4.470;2023-05-20T14:43:28;3.43;;;1.80;;
38972;SDS011;25333;50.762;4.470;2023-05-20T14:45:56;2.80;;;1.17;;
38972;SDS011;25333;50.762;4.470;2023-05-20T14:48:21;3.43;;;1.47;;
38972;SDS011;25333;50.762;4.470;2023-05-20T14:50:47;7.10;;;2.57;;
38972;SDS011;25333;50.762;4.470;2023-05-20T14:53:13;2.15;;;1.30;;
38972;SDS011;25333;50.762;4.470;2023-05-20T14:55:39;1.90;;;1.20;;
38972;SDS011;25333;50.762;4.470;2023-05-20T14:58:04;2.67;;;1.40;;
38972;SDS011;25333;50.762;4.470;2023-05-20T15:00:30;3.63;;;1.38;;
38972;SDS011;25333;50.762;4.470;2023-05-20T15:02:56;3.45;;;1.20;;
38972;SDS011;25333;50.762;4.470;2023-05-20T15:05:22;1.75;;;1.00;;
38972;SDS011;25333;50.762;4.470;2023-05-20T15:07:48;2.63;;;1.15;;
38972;SDS011;25333;50.762;4.470;2023-05-20T15:10:14;3.20;;;1.33;;
38972;SDS011;25333;50.762;4.470;2023-05-20T15:12:40;3.40;;;1.10;;
38972;SDS011;25333;50.762;4.470;2023-05-20T15:15:07;3.10;;;1.43;;
38972;SDS011;25333;50.762;4.470;2023-05-20T15:17:33;1.90;;;1.00;;
38972;SDS011;25333;50.762;4.470;2023-05-20T15:19:59;4.25;;;1.30;;